createdAt,value
2022-09-23T00:01:08.692Z,36.38
2022-09-23T00:03:37.283Z,36.38
2022-09-23T00:06:08.560Z,36.38
2022-09-23T00:08:35.257Z,36.37
2022-09-23T00:11:10.198Z,36.38
2022-09-23T00:13:37.055Z,36.40
2022-09-23T00:16:08.477Z,36.42
2022-09-23T00:18:35.065Z,36.42
2022-09-23T00:21:11.782Z,36.44
2022-09-23T00:23:38.748Z,36.46
2022-09-23T00:26:05.957Z,36.48
2022-09-23T00:28:33.110Z,36.49
2022-09-23T00:31:07.090Z,36.51
2022-09-23T00:33:33.701Z,36.52
2022-09-23T00:36:01.943Z,36.54
2022-09-23T00:38:28.776Z,36.57
2022-09-23T00:40:55.360Z,36.58
2022-09-23T00:43:37.845Z,36.59
2022-09-23T00:46:04.551Z,36.60
2022-09-23T00:48:31.176Z,36.65
2022-09-23T00:50:57.901Z,36.63
2022-09-23T00:53:24.480Z,36.65
2022-09-23T00:55:53.621Z,36.66
2022-09-23T00:58:23.436Z,36.66
2022-09-23T01:00:50.117Z,36.66
2022-09-23T01:03:16.694Z,36.68
2022-09-23T01:05:43.286Z,36.68
2022-09-23T01:08:12.900Z,36.67
2022-09-23T01:10:50.968Z,36.65
2022-09-23T01:13:56.235Z,36.63
2022-09-23T01:16:31.910Z,36.64
2022-09-23T01:19:21.602Z,36.65
2022-09-23T01:21:57.391Z,36.67
2022-09-23T01:24:42.170Z,36.67
2022-09-23T01:27:36.543Z,36.67
2022-09-23T01:30:05.816Z,36.66
2022-09-23T01:32:42.323Z,36.66
2022-09-23T01:35:35.298Z,36.67
2022-09-23T01:38:16.449Z,36.65
2022-09-23T01:40:50.910Z,36.67
2022-09-23T01:43:33.873Z,36.66
2022-09-23T01:46:00.515Z,36.64
2022-09-23T01:48:35.673Z,36.66
2022-09-23T01:51:08.222Z,36.62
2022-09-23T01:53:48.939Z,36.60
2022-09-23T01:56:22.798Z,36.59
2022-09-23T01:59:13.658Z,36.58
2022-09-23T02:01:53.859Z,36.59
2022-09-23T02:04:28.230Z,36.58
2022-09-23T02:06:56.338Z,36.56
2022-09-23T02:09:25.034Z,36.56
2022-09-23T02:11:52.498Z,36.57
2022-09-23T02:14:44.481Z,36.58
2022-09-23T02:17:13.063Z,36.57
2022-09-23T02:19:47.857Z,36.56
2022-09-23T02:22:22.259Z,36.56
2022-09-23T02:24:49.209Z,36.55
2022-09-23T02:27:45.082Z,36.56
2022-09-23T02:30:14.027Z,36.55
2022-09-23T02:33:04.154Z,36.56
2022-09-23T02:35:48.950Z,36.57
2022-09-23T02:38:27.212Z,36.56
2022-09-23T02:40:56.671Z,36.57
2022-09-23T02:43:33.884Z,36.57
2022-09-23T02:46:03.048Z,36.57
2022-09-23T02:48:34.766Z,36.58
2022-09-23T02:51:03.772Z,36.56
2022-09-23T02:53:33.789Z,36.60
2022-09-23T02:56:01.424Z,36.60
2022-09-23T02:58:27.992Z,36.60
2022-09-23T03:01:16.421Z,36.61
2022-09-23T03:04:19.906Z,36.61
2022-09-23T03:07:02.806Z,36.58
2022-09-23T03:09:32.438Z,36.60
2022-09-23T03:12:38.292Z,36.57
2022-09-23T03:15:26.019Z,36.57
2022-09-23T03:18:01.649Z,36.58
2022-09-23T03:20:38.298Z,36.61
2022-09-23T03:23:07.511Z,36.58
2022-09-23T03:25:36.476Z,36.62
2022-09-23T03:28:03.067Z,36.58
2022-09-23T03:30:29.885Z,36.60
2022-09-23T03:32:56.440Z,36.59
2022-09-23T03:35:24.199Z,36.60
2022-09-23T03:37:56.845Z,36.61
2022-09-23T03:40:30.138Z,36.63
2022-09-23T03:42:57.550Z,36.61
2022-09-23T03:45:27.516Z,36.62
2022-09-23T03:47:54.194Z,36.63
2022-09-23T03:50:21.352Z,36.66
2022-09-23T03:52:50.446Z,36.68
2022-09-23T03:55:17.741Z,36.69
2022-09-23T03:57:45.164Z,36.69
2022-09-23T04:00:12.461Z,36.71
2022-09-23T04:02:39.216Z,36.70
2022-09-23T04:05:06.619Z,36.71
2022-09-23T04:07:33.173Z,36.73
2022-09-23T04:09:59.702Z,36.73
2022-09-23T04:12:26.388Z,36.73
2022-09-23T04:14:52.933Z,36.75
2022-09-23T04:17:19.644Z,36.76
2022-09-23T04:19:46.428Z,36.79
2022-09-23T04:22:12.984Z,36.77
2022-09-23T04:24:39.534Z,36.78
2022-09-23T04:27:06.109Z,36.81
2022-09-23T04:29:32.727Z,36.82
2022-09-23T04:31:59.541Z,36.80
2022-09-23T04:34:26.152Z,36.82
2022-09-23T04:36:52.683Z,36.82
2022-09-23T04:39:19.558Z,36.81
2022-09-23T04:41:46.230Z,36.84
2022-09-23T04:44:13.319Z,36.84
2022-09-23T04:46:40.704Z,36.86
2022-09-23T04:49:07.561Z,36.87
2022-09-23T04:51:34.308Z,36.87
2022-09-23T04:54:00.859Z,36.89
2022-09-23T04:56:28.939Z,36.90
2022-09-23T04:58:58.278Z,36.91
2022-09-23T05:01:26.847Z,36.93
2022-09-23T05:03:55.376Z,36.95
2022-09-23T05:06:22.046Z,36.93
2022-09-23T05:08:50.380Z,36.93
2022-09-23T05:11:17.979Z,36.92
2022-09-23T05:13:48.057Z,37.59
2022-09-23T05:16:15.818Z,37.88
2022-09-23T05:18:42.850Z,37.99
2022-09-23T05:21:12.574Z,38.16
2022-09-23T05:23:39.970Z,38.25
2022-09-23T05:26:08.270Z,38.21
2022-09-23T05:28:38.747Z,38.19
2022-09-23T05:31:05.927Z,38.29
2022-09-23T05:33:35.711Z,38.36
2022-09-23T05:36:05.408Z,38.33
2022-09-23T05:38:32.113Z,38.31
2022-09-23T05:40:59.541Z,38.33
2022-09-23T05:43:26.382Z,38.35
2022-09-23T05:45:53.032Z,38.37
2022-09-23T05:48:19.615Z,38.42
2022-09-23T05:50:52.564Z,38.38
2022-09-23T05:53:19.342Z,38.37
2022-09-23T05:55:46.217Z,38.37
2022-09-23T05:58:12.874Z,38.41
2022-09-23T06:00:40.976Z,38.40
2022-09-23T06:03:14.393Z,38.46
2022-09-23T06:05:41.048Z,38.38
2022-09-23T06:08:08.132Z,38.33
2022-09-23T06:10:39.230Z,38.34
2022-09-23T06:13:06.133Z,38.50
2022-09-23T06:15:32.852Z,38.59
2022-09-23T06:18:02.282Z,38.58
2022-09-23T06:20:28.971Z,38.60
2022-09-23T06:22:56.418Z,38.62
2022-09-23T06:25:23.088Z,38.63
2022-09-23T06:27:54.428Z,38.54
2022-09-23T06:30:25.646Z,38.47
2022-09-23T06:32:53.978Z,38.40
2022-09-23T06:35:27.720Z,38.50
2022-09-23T06:37:54.945Z,38.40
2022-09-23T06:40:24.860Z,38.59
2022-09-23T06:42:58.856Z,38.78
2022-09-23T06:45:26.262Z,38.77
2022-09-23T06:48:02.114Z,38.95
2022-09-23T06:50:29.152Z,38.86
2022-09-23T06:52:56.265Z,38.89
2022-09-23T06:55:26.682Z,39.02
2022-09-23T06:57:53.697Z,39.01
2022-09-23T07:00:22.615Z,39.02
2022-09-23T07:02:49.459Z,39.03
2022-09-23T07:05:17.653Z,38.96
2022-09-23T07:07:44.671Z,38.93
2022-09-23T07:10:11.506Z,39.02
2022-09-23T07:12:38.173Z,37.15
2022-09-23T07:15:05.023Z,37.43
2022-09-23T07:17:32.224Z,37.71
2022-09-23T07:19:58.825Z,38.06
2022-09-23T07:22:25.753Z,38.39
2022-09-23T07:24:55.942Z,38.62
2022-09-23T07:27:26.193Z,38.56
2022-09-23T07:29:53.064Z,38.71
2022-09-23T07:32:19.904Z,39.16
2022-09-23T07:34:47.274Z,39.14
2022-09-23T07:37:14.756Z,38.87
2022-09-23T07:39:44.465Z,39.14
2022-09-23T07:42:15.532Z,39.19
2022-09-23T07:44:45.318Z,39.47
2022-09-23T07:47:15.724Z,39.41
2022-09-23T07:49:42.279Z,39.65
2022-09-23T07:52:08.855Z,39.88
2022-09-23T07:54:35.726Z,39.61
2022-09-23T07:57:02.299Z,39.49
2022-09-23T07:59:31.481Z,39.03
2022-09-23T08:01:58.101Z,38.97
2022-09-23T08:04:29.716Z,39.09
2022-09-23T08:06:58.017Z,38.87
2022-09-23T08:09:26.648Z,39.07
2022-09-23T08:11:53.340Z,39.20
2022-09-23T08:14:20.112Z,40.54
2022-09-23T08:16:47.662Z,40.82
2022-09-23T08:19:17.674Z,40.82
2022-09-23T08:21:46.707Z,40.72
2022-09-23T08:24:20.395Z,40.62
2022-09-23T08:26:47.513Z,40.67
2022-09-23T08:29:16.488Z,40.59
2022-09-23T08:31:43.238Z,40.47
2022-09-23T08:34:09.921Z,40.41
2022-09-23T08:36:38.742Z,40.41
2022-09-23T08:39:05.567Z,40.32
2022-09-23T08:41:58.495Z,40.35
2022-09-23T08:44:27.113Z,40.32
2022-09-23T08:47:11.480Z,40.27
2022-09-23T08:50:19.884Z,40.42
2022-09-23T08:52:57.073Z,40.56
2022-09-23T08:55:44.623Z,40.40
2022-09-23T08:58:39.385Z,40.51
2022-09-23T09:01:26.682Z,40.56
2022-09-23T09:04:16.245Z,40.58
2022-09-23T09:06:55.903Z,40.62
2022-09-23T09:10:11.746Z,40.54
2022-09-23T09:12:49.400Z,40.59
2022-09-23T09:15:18.743Z,40.47
2022-09-23T09:18:11.557Z,40.34
2022-09-23T09:20:59.837Z,40.22
2022-09-23T09:23:38.996Z,40.12
2022-09-23T09:26:05.956Z,40.12
2022-09-23T09:28:38.841Z,40.08
2022-09-23T09:31:28.167Z,39.98
2022-09-23T09:34:07.177Z,39.99
2022-09-23T09:37:01.303Z,39.83
2022-09-23T09:39:39.391Z,39.79
2022-09-23T09:42:06.514Z,39.81
2022-09-23T09:45:01.820Z,39.79
2022-09-23T09:47:28.692Z,39.80
2022-09-23T09:50:06.203Z,39.83
2022-09-23T09:52:33.041Z,39.73
2022-09-23T09:55:26.589Z,39.57
2022-09-23T09:58:01.719Z,39.41
2022-09-23T10:00:28.394Z,39.44
2022-09-23T10:03:01.419Z,39.48
2022-09-23T10:05:34.650Z,39.46
2022-09-23T10:08:35.644Z,39.45
2022-09-23T10:11:20.891Z,39.58
2022-09-23T10:14:17.820Z,39.64
2022-09-23T10:16:45.068Z,39.49
2022-09-23T10:19:21.625Z,39.38
2022-09-23T10:21:52.268Z,39.53
2022-09-23T10:24:23.662Z,39.65
2022-09-23T10:27:09.793Z,39.72
2022-09-23T10:29:41.066Z,39.94
2022-09-23T10:32:22.885Z,39.95
2022-09-23T10:35:09.282Z,39.92
2022-09-23T10:37:43.044Z,39.71
2022-09-23T10:40:52.698Z,39.37
2022-09-23T10:43:44.104Z,39.46
2022-09-23T10:46:39.537Z,39.48
2022-09-23T10:49:43.983Z,39.39
2022-09-23T10:52:31.943Z,39.47
2022-09-23T10:55:10.806Z,39.48
2022-09-23T10:57:56.851Z,40.07
2022-09-23T11:00:32.083Z,40.59
2022-09-23T11:03:26.487Z,40.65
2022-09-23T11:06:14.419Z,40.04
2022-09-23T11:09:06.935Z,39.46
2022-09-23T11:12:21.505Z,38.65
2022-09-23T11:14:54.425Z,38.62
2022-09-23T11:17:27.028Z,38.99
2022-09-23T11:20:23.390Z,38.85
2022-09-23T11:23:24.008Z,38.50
2022-09-23T11:26:32.202Z,38.56
2022-09-23T11:29:12.296Z,38.83
2022-09-23T11:32:02.965Z,38.84
2022-09-23T11:34:54.336Z,38.78
2022-09-23T11:37:27.732Z,38.65
2022-09-23T11:39:57.114Z,38.38
2022-09-23T11:42:29.624Z,38.45
2022-09-23T11:44:59.323Z,38.54
2022-09-23T11:47:32.849Z,38.64
2022-09-23T11:50:35.567Z,38.73
2022-09-23T11:53:23.019Z,38.70
2022-09-23T11:55:58.456Z,38.56
2022-09-23T11:58:30.702Z,38.46
2022-09-23T12:01:09.419Z,38.54
2022-09-23T12:04:16.709Z,38.69
2022-09-23T12:06:48.243Z,38.87
2022-09-23T12:09:36.002Z,38.76
2022-09-23T12:12:25.044Z,38.66
2022-09-23T12:15:02.114Z,38.62
2022-09-23T12:17:54.451Z,38.63
2022-09-23T12:20:41.500Z,38.59
2022-09-23T12:23:26.699Z,38.66
2022-09-23T12:25:56.426Z,38.66
2022-09-23T12:28:26.313Z,38.65
2022-09-23T12:30:54.746Z,38.63
2022-09-23T12:33:22.528Z,38.61
2022-09-23T12:35:49.106Z,38.54
2022-09-23T12:38:20.412Z,38.53
2022-09-23T12:40:47.033Z,38.51
2022-09-23T12:43:34.642Z,38.54
2022-09-23T12:46:18.410Z,38.40
2022-09-23T12:49:00.011Z,38.37
2022-09-23T12:51:30.857Z,38.33
2022-09-23T12:54:18.511Z,38.28
2022-09-23T12:56:54.244Z,38.06
2022-09-23T12:59:31.627Z,38.00
2022-09-23T13:01:58.466Z,38.11
2022-09-23T13:05:01.984Z,38.14
2022-09-23T13:07:33.736Z,38.20
2022-09-23T13:10:14.882Z,38.22
2022-09-23T13:12:42.022Z,38.16
2022-09-23T13:15:42.340Z,38.18
2022-09-23T13:18:21.087Z,38.15
2022-09-23T13:20:48.838Z,38.11
2022-09-23T13:23:33.592Z,38.09
2022-09-23T13:26:01.635Z,38.02
2022-09-23T13:28:34.416Z,38.03
2022-09-23T13:31:05.955Z,38.00
2022-09-23T13:33:50.564Z,37.96
2022-09-23T13:36:18.722Z,37.91
2022-09-23T13:38:47.045Z,37.79
2022-09-23T13:41:22.388Z,37.80
2022-09-23T13:43:49.621Z,37.71
2022-09-23T13:46:22.072Z,37.76
2022-09-23T13:48:50.836Z,37.66
2022-09-23T13:51:27.894Z,37.63
2022-09-23T13:53:55.967Z,37.69
2022-09-23T13:56:22.723Z,37.76
2022-09-23T13:58:49.291Z,37.64
2022-09-23T14:01:27.551Z,37.70
2022-09-23T14:03:54.238Z,37.63
2022-09-23T14:06:20.820Z,37.49
2022-09-23T14:08:48.832Z,37.50
2022-09-23T14:11:40.267Z,37.48
2022-09-23T14:14:08.023Z,37.54
2022-09-23T14:16:38.989Z,37.50
2022-09-23T14:19:07.894Z,37.54
2022-09-23T14:21:39.020Z,37.50
2022-09-23T14:24:33.783Z,37.47
2022-09-23T14:27:15.746Z,37.37
2022-09-23T14:29:44.188Z,37.38
2022-09-23T14:32:14.648Z,37.48
2022-09-23T14:34:46.837Z,37.47
2022-09-23T14:37:45.197Z,37.47
2022-09-23T14:40:17.238Z,37.54
2022-09-23T14:42:48.860Z,37.48
2022-09-23T14:45:20.778Z,37.51
2022-09-23T14:47:52.046Z,37.49
2022-09-23T14:50:48.695Z,37.45
2022-09-23T14:53:26.830Z,37.45
2022-09-23T14:55:59.659Z,37.44
2022-09-23T14:58:28.577Z,37.40
2022-09-23T15:00:57.265Z,37.37
2022-09-23T15:03:23.944Z,37.32
2022-09-23T15:05:51.557Z,37.26
2022-09-23T15:08:20.205Z,37.25
2022-09-23T15:10:46.779Z,37.32
2022-09-23T15:13:24.232Z,37.30
2022-09-23T15:15:53.926Z,37.24
2022-09-23T15:18:22.633Z,37.24
2022-09-23T15:20:56.345Z,37.28
2022-09-23T15:23:52.988Z,37.24
2022-09-23T15:26:21.636Z,37.20
2022-09-23T15:28:48.662Z,37.21
2022-09-23T15:31:19.398Z,37.13
2022-09-23T15:33:49.869Z,37.13
2022-09-23T15:36:20.649Z,37.11
2022-09-23T15:38:47.389Z,37.15
2022-09-23T15:41:14.424Z,37.14
2022-09-23T15:43:44.602Z,37.17
2022-09-23T15:46:22.233Z,37.09
2022-09-23T15:49:00.937Z,37.01
2022-09-23T15:51:27.885Z,37.04
2022-09-23T15:53:55.438Z,36.96
2022-09-23T15:56:22.757Z,36.95
2022-09-23T15:58:49.372Z,36.91
2022-09-23T16:01:19.548Z,36.96
2022-09-23T16:03:46.143Z,36.99
2022-09-23T16:06:13.468Z,37.02
2022-09-23T16:08:42.200Z,36.96
2022-09-23T16:11:19.485Z,36.87
2022-09-23T16:13:46.189Z,36.73
2022-09-23T16:16:13.019Z,36.78
2022-09-23T16:18:44.606Z,36.77
2022-09-23T16:21:12.409Z,36.80
2022-09-23T16:23:41.236Z,36.85
2022-09-23T16:26:15.299Z,36.85
2022-09-23T16:28:42.228Z,36.85
2022-09-23T16:31:09.483Z,36.92
2022-09-23T16:33:36.086Z,36.94
2022-09-23T16:36:02.760Z,36.91
2022-09-23T16:38:29.611Z,36.96
2022-09-23T16:41:00.434Z,36.94
2022-09-23T16:43:31.601Z,36.88
2022-09-23T16:45:58.568Z,36.87
2022-09-23T16:48:25.179Z,36.88
2022-09-23T16:50:54.946Z,36.85
2022-09-23T16:53:21.531Z,36.86
2022-09-23T16:55:48.071Z,36.86
2022-09-23T16:58:14.633Z,36.85
2022-09-23T17:00:59.868Z,36.86
2022-09-23T17:03:41.674Z,36.87
2022-09-23T17:06:13.003Z,36.86
2022-09-23T17:08:42.796Z,36.88
2022-09-23T17:11:10.752Z,36.92
2022-09-23T17:13:39.612Z,36.93
2022-09-23T17:16:06.431Z,36.92
2022-09-23T17:18:33.064Z,36.93
2022-09-23T17:21:06.609Z,36.94
2022-09-23T17:23:35.189Z,36.93
2022-09-23T17:26:02.267Z,36.93
2022-09-23T17:28:29.135Z,36.93
2022-09-23T17:30:59.402Z,36.95
2022-09-23T17:33:26.829Z,36.95
2022-09-23T17:35:54.565Z,36.95
2022-09-23T17:38:28.897Z,36.95
2022-09-23T17:40:57.033Z,36.98
2022-09-23T17:43:26.589Z,36.96
2022-09-23T17:45:54.559Z,36.96
2022-09-23T17:48:25.619Z,36.95
2022-09-23T17:50:58.434Z,36.96
2022-09-23T17:53:25.955Z,36.98
2022-09-23T17:55:59.918Z,37.00
2022-09-23T17:58:33.446Z,37.01
2022-09-23T18:01:00.761Z,37.03
2022-09-23T18:03:28.700Z,37.07
2022-09-23T18:05:55.547Z,37.08
2022-09-23T18:08:22.166Z,37.10
2022-09-23T18:10:48.738Z,37.11
2022-09-23T18:13:15.303Z,37.13
2022-09-23T18:15:41.946Z,37.16
2022-09-23T18:18:08.484Z,37.17
2022-09-23T18:20:35.070Z,37.20
2022-09-23T18:23:01.671Z,37.21
2022-09-23T18:25:39.240Z,37.24
2022-09-23T18:28:06.654Z,37.29
2022-09-23T18:30:33.581Z,37.29
2022-09-23T18:33:00.257Z,37.30
2022-09-23T18:35:28.424Z,37.31
2022-09-23T18:37:55.429Z,37.34
2022-09-23T18:40:22.104Z,37.37
2022-09-23T18:42:49.707Z,37.39
2022-09-23T18:45:16.237Z,37.42
2022-09-23T18:48:01.579Z,37.45
2022-09-23T18:50:40.807Z,37.47
2022-09-23T18:53:08.201Z,37.47
2022-09-23T18:55:37.965Z,37.50
2022-09-23T18:58:07.352Z,37.50
2022-09-23T19:00:34.099Z,37.53
2022-09-23T19:03:00.725Z,37.52
2022-09-23T19:05:27.308Z,37.51
2022-09-23T19:07:53.909Z,37.52
2022-09-23T19:10:20.600Z,37.53
2022-09-23T19:12:47.235Z,37.52
2022-09-23T19:15:14.221Z,37.50
2022-09-23T19:17:40.922Z,37.49
2022-09-23T19:20:08.040Z,37.46
2022-09-23T19:22:34.865Z,37.46
2022-09-23T19:25:01.504Z,37.46
2022-09-23T19:27:28.100Z,37.46
2022-09-23T19:29:55.012Z,37.45
2022-09-23T19:32:27.044Z,37.43
2022-09-23T19:34:53.664Z,37.39
2022-09-23T19:37:20.364Z,37.39
2022-09-23T19:39:47.687Z,37.42
2022-09-23T19:42:14.378Z,37.44
2022-09-23T19:44:41.025Z,37.41
2022-09-23T19:47:07.792Z,37.42
2022-09-23T19:49:34.422Z,37.40
2022-09-23T19:52:01.100Z,37.41
2022-09-23T19:54:27.855Z,37.41
2022-09-23T19:56:54.527Z,37.43
2022-09-23T19:59:21.395Z,37.45
2022-09-23T20:01:48.700Z,37.43
2022-09-23T20:04:16.060Z,37.41
2022-09-23T20:06:42.752Z,37.42
2022-09-23T20:09:09.329Z,37.43
2022-09-23T20:11:36.130Z,37.44
2022-09-23T20:14:04.430Z,37.41
2022-09-23T20:16:32.789Z,37.46
2022-09-23T20:18:59.899Z,37.41
2022-09-23T20:21:26.755Z,37.39
2022-09-23T20:23:53.300Z,37.42
2022-09-23T20:26:38.347Z,37.42
2022-09-23T20:29:05.137Z,37.44
2022-09-23T20:31:32.282Z,37.43
2022-09-23T20:33:58.901Z,37.42
2022-09-23T20:36:28.846Z,37.45
2022-09-23T20:38:56.098Z,37.45
2022-09-23T20:41:22.784Z,37.49
2022-09-23T20:43:54.075Z,37.54
2022-09-23T20:46:25.437Z,37.58
2022-09-23T20:48:52.161Z,37.61
2022-09-23T20:51:18.696Z,37.61
2022-09-23T20:53:47.851Z,37.61
2022-09-23T20:56:14.905Z,37.61
2022-09-23T20:58:41.638Z,37.61
2022-09-23T21:01:11.578Z,37.59
2022-09-23T21:03:39.592Z,37.60
2022-09-23T21:06:07.006Z,37.60
2022-09-23T21:08:34.177Z,37.60
2022-09-23T21:11:04.852Z,37.60
2022-09-23T21:13:31.906Z,37.60
2022-09-23T21:16:05.698Z,37.58
2022-09-23T21:18:32.289Z,37.55
2022-09-23T21:20:59.471Z,37.53
2022-09-23T21:23:27.255Z,37.51
2022-09-23T21:26:19.295Z,37.46
2022-09-23T21:28:50.503Z,37.44
2022-09-23T21:31:26.023Z,37.38
2022-09-23T21:33:56.787Z,37.33
2022-09-23T21:36:24.582Z,37.30
2022-09-23T21:38:51.449Z,37.30
2022-09-23T21:41:18.037Z,37.29
2022-09-23T21:43:44.789Z,37.26
2022-09-23T21:46:13.483Z,37.24
2022-09-23T21:48:41.197Z,37.25
2022-09-23T21:51:13.287Z,37.28
2022-09-23T21:53:40.317Z,37.25
2022-09-23T21:56:11.077Z,37.25
2022-09-23T21:58:39.676Z,37.26
2022-09-23T22:01:20.146Z,37.27
2022-09-23T22:03:54.960Z,37.25
2022-09-23T22:06:23.116Z,37.25
2022-09-23T22:08:50.963Z,37.24
2022-09-23T22:11:38.706Z,37.22
2022-09-23T22:14:07.369Z,37.24
2022-09-23T22:16:34.370Z,37.20
2022-09-23T22:19:01.241Z,37.21
2022-09-23T22:21:29.245Z,37.19
2022-09-23T22:24:02.759Z,37.18
2022-09-23T22:26:31.334Z,37.18
2022-09-23T22:29:19.532Z,37.15
2022-09-23T22:32:04.996Z,37.16
2022-09-23T22:34:48.950Z,37.15
2022-09-23T22:37:18.900Z,37.13
2022-09-23T22:39:45.586Z,37.16
2022-09-23T22:42:13.113Z,37.16
2022-09-23T22:44:42.034Z,37.14
2022-09-23T22:47:11.411Z,37.14
2022-09-23T22:49:40.133Z,37.13
2022-09-23T22:52:11.418Z,37.11
2022-09-23T22:54:38.505Z,37.14
2022-09-23T22:57:08.334Z,37.15
2022-09-23T22:59:35.523Z,37.10
2022-09-23T23:02:02.948Z,37.10
2022-09-23T23:04:29.855Z,37.10
2022-09-23T23:06:57.299Z,37.08
2022-09-23T23:09:23.871Z,37.02
2022-09-23T23:11:50.556Z,37.01
2022-09-23T23:14:17.922Z,37.03
2022-09-23T23:16:46.297Z,37.02
2022-09-23T23:19:14.629Z,36.97
2022-09-23T23:21:43.430Z,36.99
2022-09-23T23:24:20.720Z,36.98
2022-09-23T23:26:47.640Z,36.95
2022-09-23T23:29:15.397Z,36.96
2022-09-23T23:31:42.030Z,36.95
2022-09-23T23:34:11.935Z,36.97
2022-09-23T23:36:38.691Z,36.98
2022-09-23T23:39:05.447Z,36.96
2022-09-23T23:41:32.026Z,36.96
2022-09-23T23:43:59.486Z,37.00
2022-09-23T23:46:27.624Z,37.02
2022-09-23T23:48:54.695Z,37.03
2022-09-23T23:51:21.358Z,37.00
2022-09-23T23:53:48.295Z,37.03
2022-09-23T23:56:18.986Z,37.05
2022-09-23T23:58:45.568Z,37.07
